الصفحة الرئيسية
METAR-TAF:

METAR-TAF

مطار :

مطار هاربين الدولي

هاربين, جمهورية الصين الشعبية

دائرة عرض: 45-45N, خط طول: 126-46E, ارتفاع: 143 متر

مراقبة الطقس الحالي

تاريخ ووقت الإصدار 1ساعة و 2 دقيقة قبل الساعة 13:00UTC
ريح 14 عقدة من الشمال الشرقي
درجة الحرارة 11°درجة مئوية
الرطوبة 94%
ضغط 1006 hPa
الرؤية 10 كم أو أكثر
غيوم متفرقة على ارتفاع 600 قدم
ملبد بالغيوم على ارتفاع 2000 قدم
مطر خفيف,

METAR: ZYHB 301300Z 05007MPS 9999 -RA SCT006 OVC020 11/10 Q1006 NOSIG

زمن: 22:02 (14:02 UTC)

توقعات

تاريخ ووقت الإصدار 4ساعات و 59 دقيقة قبل الساعة 09:03UTC
التوقعات صالحة من30 الساعة 12 UTC إلى 31 الساعة 12 UTC
ريح 12 عقدة من الشمال/الشمال الشرقي تتزايد حتى 23 عقدة
الرؤية: 6000 متر
غيوم متفرقة على ارتفاع 500 قدم
غيوم مفككة على ارتفاع 2300 قدم

TAF: ZYHB 300903Z 3012/3112 02006G12MPS 6000 SCT005 BKN023 TX14/3106Z TN10/3021Z

أرصاد الطقس والتوقعات من أكثر من 4000 مطار (تقارير الطقس للمطار METAR والتنبؤ بالطقس بالمطارTAF).

المحطات المتاحة هي النقط الصفراء والحمراء على الخريطة.

حرك المؤشر فوق النقطة لمعرفة اسم المحطة.

ثم انقر لمعرفة أرصاد وتوقعات الطقس.

لتغيير الخارطة: اضغط على الأزرار الخضراء مع رمز الصليب الأسود للتكبير. على الزر الأخضر مع شرطة للتصغير، أو على الأسهم الخضراء للخرائط المجاورة.


METAR-TAF: